Aktualne dane pomiarowe

Uwaga, wersja testowa! Automatyczne pobieranie danych za pomocą narzędzi lub skryptów to umożliwiających jest zabronione.

Dane meteo z obszaru Polski uzyskane na podstawie depesz SYNOP pobieranych co godzinę z NWS. Najedź myszką na symbol przedstawiony w tabeli, aby uzyskać informacje co do jego znaczenia. Prosimy pamiętać, że to testowa wersja strony, która jeszcze nie jest ukończona. Stworzono również jest krótki FAQ dotyczący korzystania z tej podstrony Anomalie temperatury w chwili obecnej odniesione są do okresu referencyjnego 1951-2016. Okres ten będzie później zmieniony na 1981-2010. Kliknij ikonę aby pobrać plik CSV. Kliknij ikonę aby wygenerować mapę synoptyczną dla danego terminu.

Wybierz Datę:    

        

Przemyśl (12695)

Dane terminowe dla wybranej stacji. Kliknij datę, aby otrzymać dane z tego terminu dla wszystkich stacji.

TemperaturaZachmurzenieWiatrCiśnienieOpadyPogoda
 Data t td wb tx tn tg rh  Nt Nl Cl Cm Ch ws wd g1 g2 wx mslp ppp ch 24h 12h t ww ww w1 w2  
2019-07-12 23:00:00 16.3 8.6 11.7--- 60---3wx---1010.6 977.9 -0.4---wx-----
2019-07-12 22:00:00 16.5 8.6 11.8--- 60---2wx---1010.8 978.1 -0.2---------
2019-07-12 21:00:00 16.7 8.8 12.0--- 60---2wx---1010.9 978.3 0.3---wx-----
2019-07-12 20:00:00 18.1 8.5 12.5--- 53---2wx---1010.9 978.3 0.5---wx-----
2019-07-12 19:00:00 18.9 9.0 13.1--- 53---1----1010.7 978.3 0.4---wx-----
2019-07-12 18:00:00 21.0 8.2 13.7 23.0 11.0- 44---1wx---1010.1 977.9 -0.3- 0.012wx-----
2019-07-12 17:00:00 22.4 7.5 14.0--- 38---2----1009.9 977.9 -0.8---wx-----
2019-07-12 16:00:00 22.5 7.2 13.9--- 37---2----1009.9 977.9 -1.0---wx-----
2019-07-12 15:00:00 22.4 7.5 14.0--- 38---2----1010.2 978.2 -0.7---wx-----
2019-07-12 14:00:00 22.6 7.7 14.2--- 38---2----1010.7 978.7 -0.7---wx-----
2019-07-12 13:00:00 21.6 7.5 13.7--- 40---2----1011.1 979.0 -0.7---wx-----
2019-07-12 12:00:00 22.8 7.5 14.2--- 37---3----1010.9 978.9 -0.8- 0.06wx-----
2019-07-12 11:00:00 21.5 7.5 13.6--- 40---3----1011.5 979.3 -0.4---wx-----
2019-07-12 10:00:00 21.0 8.8 13.9--- 46---3----1011.9 979.6 -0.3---wx-----
2019-07-12 09:00:00 20.0 8.3 13.3--- 47---0----1012.1 979.7 -0.3---------
2019-07-12 08:00:00 19.1 8.6 13.0--- 51---2----1012.3 979.8 0.0---wx-----
2019-07-12 07:00:00 17.1 9.2 12.4--- 60---3----1012.6 979.9 0.2---wx-----
2019-07-12 06:00:00 14.7 9.8 11.6 18.6 11.0 10 72---3----1012.9 980.0 0.4 1.3 0.012wx---- 7.9
2019-07-12 05:00:00 12.8 9.1 10.4--- 78---0----1012.9 979.8 0.2---------
2019-07-12 04:00:00 11.4 8.9 9.7--- 85---4----1013.1 979.7 0.2---wx-----
2019-07-12 03:00:00 11.4 9.2 9.9--- 86---4wx---1012.9 979.6 0.0---wx-----
2019-07-12 02:00:00 11.5 9.7 10.3--- 89---4wx---1012.8 979.5 -0.4---wx-----
2019-07-12 01:00:00 11.4 10.1 10.5--- 92---3----1012.9 979.6 -0.4---wx-----
2019-07-12 00:00:00 11.7 10.4 10.8--- 92---3wx---1013.0 979.7 -0.3- 0.06wx-----
2019-07-11 23:00:00 12.1 10.8 11.2--- 92---3----1013.2 979.9 0.0---wx-----
2019-07-11 22:00:00 12.6 11.0 11.5--- 90---3wx---1013.2 980.0 0.6---wx-----
2019-07-11 21:00:00 13.4 11.1 11.8--- 86---3wx---1013.1 980.0 1.1---wx-----
2019-07-11 20:00:00 14.3 10.9 12.1--- 80---2wx---1012.8 979.8 1.1---wx-----
2019-07-11 19:00:00 14.6 10.6 12.0--- 77---2wx---1012.3 979.3 0.7---wx-----
2019-07-11 18:00:00 15.1 9.9 11.8 18.6 11.2- 71---2----1011.8 978.9 0.5- 1.012wx-----
2019-07-11 17:00:00 16.6 10.6 12.8--- 68---3----1011.4 978.7 0.0---wx-----
2019-07-11 16:00:00 17.3 9.8 12.7--- 61---4----1011.2 978.6 0.2---wx-----
2019-07-11 15:00:00 17.7 10.4 13.2--- 62---3----1011.0 978.4 0.0---wx-----
2019-07-11 14:00:00 18.1 7.2 11.9--- 49---2----1011.1 978.6 0.2---wx-----
2019-07-11 13:00:00 17.7 9.6 12.8--- 59---2----1011.0 978.4 -0.4---wx-----
2019-07-11 12:00:00 15.8 10.5 12.5--- 71---3----1011.4 978.6 -0.6- 1.06wx-----
2019-07-11 11:00:00 17.3 11.2 13.5--- 67---2----1011.0 978.3 -0.7---wx-----
2019-07-11 10:00:00 14.4 10.1 11.6--- 75---4----1011.8 978.9 0.0---wx-----
2019-07-11 09:00:00 13.2 12.1 12.4--- 93---3----1012.3 979.2 0.4---wx-----
2019-07-11 08:00:00 12.8 11.1 11.6--- 89---2----1012.2 979.0 0.2---wx-----
2019-07-11 07:00:00 13.6 10.4 11.5--- 81---0----1012.0 979.0 0.2---------
2019-07-11 06:00:00 13.8 10.9 11.9 18.7 11.2 11 83---3----1011.9 978.8 0.3 1.0 0.012wx---- 4.6
2019-07-11 05:00:00 11.6 10.1 10.5--- 91---3----1012.2 978.9 0.0---wx-----
2019-07-11 04:00:00 11.9 9.3 10.2--- 84---3wx---1012.1 978.8 -0.2---wx-----
2019-07-11 03:00:00 11.2 9.1 9.8--- 87---3wx---1011.9 978.6 -0.7---wx-----
2019-07-11 02:00:00 11.8 9.3 10.1--- 85---4----1012.0 978.7 -0.6---wx-----
2019-07-11 01:00:00 12.2 9.8 10.6--- 85---4wx---1012.3 979.0 -0.5---wx-----
2019-07-11 00:00:00 12.6 10.4 11.1--- 86---3----1012.5 979.3 -0.3- 0.06wx-----
2.2 ms

 

Print Friendly, PDF & Email